Terminal Aerodrome Forecast
Issued by NWS

Home | Current Version | Previous Version | Text Only | Print | Product List | Glossary On
Versions: 1 2 3 4 5 6 7 8 9 10 11 12 13 14 15 16 17 18
000
FTUS44 KLZK 251700
TAFPBF
TAF
KPBF 251737Z 2518/2618 18012G18KT P6SM SCT025 BKN050
      TEMPO 2518/2520 BKN025
     FM252200 15012G18KT P6SM VCSH BKN050
      TEMPO 2603/2607 VRB20G45KT 2SM TSRA BR OVC015CB
     FM260700 17010KT 5SM SHRA BR OVC025
     FM261400 20009KT P6SM OVC025=

USA.gov is the U.S. government's official web portal to all federal, state and local government web resources and services.